Time;durP1;ratioP1;P1;durP2;ratioP2;P2;SDS_P1;SDS_P2;PMS_P1;PMS_P2;Temp;Humidity;BMP_temperature;BMP_pressure;BME280_temperature;BME280_humidity;BME280_pressure;Samples;Min_cycle;Max_cycle;Signal;HPM_P1;HPM_P2
2021/03/20 00:00:30;;;;;;;5.07;3.63;;;;;;;4.22;61.20;100692.16;5019889;28;20049;-71
2021/03/20 00:02:55;;;;;;;8.07;4.72;;;;;;;4.18;61.72;100686.97;5017662;28;20041;-71
2021/03/20 00:05:22;;;;;;;8.18;4.50;;;;;;;4.02;62.42;100692.31;5022685;28;20049;-72
2021/03/20 00:07:48;;;;;;;9.18;4.60;;;;;;;3.96;62.71;100692.34;5017679;28;20037;-71
2021/03/20 00:10:16;;;;;;;9.27;5.00;;;;;;;3.91;62.57;100699.34;5008885;28;20046;-72
2021/03/20 00:12:43;;;;;;;6.75;4.75;;;;;;;3.87;62.97;100695.06;5010743;28;20049;-71
2021/03/20 00:15:11;;;;;;;6.45;5.18;;;;;;;3.88;62.86;100694.16;5010895;28;20112;-70
2021/03/20 00:17:36;;;;;;;6.35;4.97;;;;;;;3.88;63.11;100695.03;5010308;28;20049;-71
2021/03/20 00:20:04;;;;;;;7.22;4.93;;;;;;;3.88;63.15;100697.63;5010319;28;20393;-72
2021/03/20 00:22:31;;;;;;;8.48;5.13;;;;;;;3.85;63.21;100694.19;5010939;28;20539;-71
2021/03/20 00:24:56;;;;;;;11.15;4.60;;;;;;;3.85;63.11;100694.19;5010938;28;20034;-71
2021/03/20 00:27:22;;;;;;;5.55;4.53;;;;;;;3.86;62.73;100696.81;5011036;28;20485;-71
2021/03/20 00:29:48;;;;;;;10.68;5.25;;;;;;;3.84;63.11;100692.47;5010221;28;20040;-71
2021/03/20 00:32:13;;;;;;;9.65;4.57;;;;;;;3.74;63.53;100693.38;5010388;28;20049;-71
2021/03/20 00:34:39;;;;;;;7.80;4.95;;;;;;;3.72;63.51;100688.22;5027174;28;20132;-70
2021/03/20 00:37:04;;;;;;;6.28;4.28;;;;;;;3.73;63.84;100694.28;5045033;28;20451;-71
2021/03/20 00:39:29;;;;;;;5.10;3.78;;;;;;;3.69;63.83;100688.19;5029496;28;20060;-70
2021/03/20 00:41:55;;;;;;;6.50;4.47;;;;;;;3.62;63.99;100690.00;5030007;28;20045;-71
2021/03/20 00:44:20;;;;;;;5.50;4.28;;;;;;;3.58;64.15;100695.25;5030748;28;20048;-70
2021/03/20 00:46:45;;;;;;;6.05;4.43;;;;;;;3.54;64.51;100699.59;5029815;28;20180;-72
2021/03/20 00:49:11;;;;;;;9.20;4.55;;;;;;;3.53;64.28;100699.63;5029615;28;20038;-70
2021/03/20 00:51:37;;;;;;;5.85;4.47;;;;;;;3.48;64.64;100697.03;5028319;28;20045;-70
2021/03/20 00:54:02;;;;;;;6.88;4.55;;;;;;;3.41;64.84;100709.22;5029686;28;20041;-71
2021/03/20 00:56:28;;;;;;;7.70;5.65;;;;;;;3.35;65.01;100706.66;5027444;28;20057;-71
2021/03/20 00:58:53;;;;;;;8.15;4.90;;;;;;;3.30;65.36;100708.44;5043218;28;20045;-70
2021/03/20 01:01:24;;;;;;;8.20;4.68;;;;;;;3.26;65.44;100708.44;5046098;28;20033;-70
2021/03/20 01:03:50;;;;;;;8.65;5.30;;;;;;;3.26;65.60;100711.06;5049586;28;20033;-70
2021/03/20 01:06:22;;;;;;;8.18;5.72;;;;;;;3.21;65.92;100711.06;5049410;28;20040;-69
2021/03/20 01:08:48;;;;;;;9.85;6.03;;;;;;;3.16;65.65;100718.03;5049357;28;20041;-70
2021/03/20 01:11:15;;;;;;;8.73;5.90;;;;;;;3.12;66.20;100722.38;5049387;28;20040;-70
2021/03/20 01:13:41;;;;;;;7.60;4.85;;;;;;;3.13;66.14;100728.47;5048763;28;20041;-70
2021/03/20 01:16:07;;;;;;;9.98;6.13;;;;;;;3.11;66.41;100727.63;5049492;28;20091;-70
2021/03/20 01:18:33;;;;;;;7.68;6.22;;;;;;;3.02;66.28;100731.09;5049485;28;20405;-70
2021/03/20 01:20:58;;;;;;;10.32;6.03;;;;;;;2.95;66.70;100722.47;5049542;28;20033;-70
2021/03/20 01:23:24;;;;;;;9.18;5.47;;;;;;;2.96;66.82;100725.94;5048536;28;20028;-70
2021/03/20 01:25:49;;;;;;;9.18;5.93;;;;;;;2.95;66.76;100724.19;5039883;28;20038;-71
2021/03/20 01:28:14;;;;;;;7.22;5.38;;;;;;;2.92;66.52;100721.59;5043904;28;20043;-71
2021/03/20 01:30:42;;;;;;;9.38;6.25;;;;;;;2.89;66.71;100724.22;5041876;28;20068;-71
2021/03/20 01:33:08;;;;;;;9.98;6.47;;;;;;;2.80;67.04;100719.88;5049639;28;20132;-71
2021/03/20 01:35:34;;;;;;;9.07;5.93;;;;;;;2.71;67.03;100722.53;5049861;28;20040;-69
2021/03/20 01:38:01;;;;;;;7.53;5.15;;;;;;;2.60;67.38;100725.13;5049786;28;20032;-71
2021/03/20 01:40:35;;;;;;;9.02;6.22;;;;;;;2.48;67.55;100726.00;5049061;28;20036;-71
2021/03/20 01:43:00;;;;;;;7.75;5.53;;;;;;;2.30;68.30;100732.09;5049268;28;20037;-71
2021/03/20 01:45:30;;;;;;;9.13;6.22;;;;;;;2.16;69.20;100731.22;5049231;28;20664;-71
2021/03/20 01:47:58;;;;;;;6.53;4.90;;;;;;;2.08;69.18;100723.41;5049208;28;20037;-71
2021/03/20 01:50:30;;;;;;;7.15;6.00;;;;;;;2.01;69.21;100721.69;5028171;28;20091;-71
2021/03/20 01:52:59;;;;;;;6.47;4.65;;;;;;;1.94;69.23;100735.53;5009341;28;20049;-71
2021/03/20 01:55:27;;;;;;;10.82;6.03;;;;;;;1.87;69.46;100728.59;5009543;28;20033;-72
2021/03/20 01:57:58;;;;;;;10.18;5.55;;;;;;;1.80;69.76;100737.28;5009880;28;20447;-71
2021/03/20 02:00:29;;;;;;;7.82;5.70;;;;;;;1.69;70.01;100737.22;5000475;28;20037;-71
2021/03/20 02:02:55;;;;;;;5.88;4.53;;;;;;;1.71;69.67;100744.16;5009591;28;20396;-71
2021/03/20 02:05:24;;;;;;;7.15;4.97;;;;;;;1.64;70.58;100736.34;5009507;28;20081;-72
2021/03/20 02:07:50;;;;;;;11.80;6.07;;;;;;;1.63;69.99;100739.81;5009986;28;20034;-71
2021/03/20 02:10:16;;;;;;;6.50;5.68;;;;;;;1.59;70.39;100736.34;5009122;28;20040;-71
2021/03/20 02:12:45;;;;;;;7.40;5.13;;;;;;;1.55;69.93;100736.31;5009592;28;20113;-71
2021/03/20 02:15:30;;;;;;;13.43;7.43;;;;;;;1.47;70.49;100731.97;5009869;28;20042;-71
2021/03/20 02:18:24;;;;;;;5.70;4.25;;;;;;;1.47;70.83;100723.31;5018155;28;20097;-71
2021/03/20 02:21:19;;;;;;;9.23;6.22;;;;;;;1.49;70.53;100731.97;4985700;28;20077;-71
2021/03/20 02:24:05;;;;;;;6.85;5.10;;;;;;;1.52;71.29;100736.31;5002539;28;20037;-71
2021/03/20 02:26:54;;;;;;;;;;;;;;;1.59;70.67;100731.13;5023235;28;20045;-71
2021/03/20 02:29:32;;;;;;;8.75;5.97;;;;;;;1.62;70.90;100725.09;5012612;28;19964;-71
2021/03/20 02:32:12;;;;;;;7.82;5.13;;;;;;;1.68;70.55;100720.78;5019940;28;20069;-70
2021/03/20 02:34:38;;;;;;;10.75;6.80;;;;;;;1.72;71.05;100719.03;5035703;28;20041;-70
2021/03/20 02:37:11;;;;;;;9.35;5.55;;;;;;;1.67;71.02;100711.25;5043110;28;20045;-70
2021/03/20 02:40:18;;;;;;;11.30;7.03;;;;;;;1.65;70.96;100715.56;5012092;28;20093;-70
2021/03/20 02:42:46;;;;;;;;;;;;;;;1.62;70.97;100712.09;5012192;28;20041;-70
2021/03/20 02:45:34;;;;;;;10.13;6.32;;;;;;;1.52;71.39;100713.78;5016253;28;19964;-70
2021/03/20 02:48:11;;;;;;;12.15;7.50;;;;;;;1.48;70.92;100707.75;5031972;28;20029;-70
2021/03/20 02:50:49;;;;;;;9.07;7.47;;;;;;;1.47;71.09;100712.91;5020242;28;20489;-70
2021/03/20 02:53:24;;;;;;;9.77;6.40;;;;;;;1.46;71.08;100713.78;5011841;28;20037;-69
2021/03/20 02:55:58;;;;;;;11.25;7.03;;;;;;;1.46;71.32;100713.78;5012218;28;20038;-71
2021/03/20 02:58:29;;;;;;;12.07;7.13;;;;;;;1.45;71.29;100717.22;5010556;28;20029;-71
2021/03/20 03:00:59;;;;;;;10.43;7.35;;;;;;;1.49;71.20;100713.78;5011922;28;20515;-72
2021/03/20 03:03:29;;;;;;;13.32;8.32;;;;;;;1.47;71.43;100708.56;5031085;28;20041;-72
2021/03/20 03:06:02;;;;;;;11.52;7.65;;;;;;;1.47;70.65;100718.97;5048113;28;20099;-71
2021/03/20 03:08:31;;;;;;;10.82;7.10;;;;;;;1.50;70.77;100719.00;5042951;28;20037;-70
2021/03/20 03:11:07;;;;;;;9.48;6.95;;;;;;;1.55;71.23;100726.81;5045871;28;20044;-70
2021/03/20 03:13:36;;;;;;;10.10;7.50;;;;;;;1.56;71.06;100714.69;5051170;28;20040;-71
2021/03/20 03:16:10;;;;;;;10.63;6.43;;;;;;;1.57;70.81;100712.06;5051119;28;20063;-71
2021/03/20 03:18:42;;;;;;;13.13;6.40;;;;;;;1.55;71.19;100721.63;5051121;28;20033;-70
2021/03/20 03:21:09;;;;;;;11.05;7.00;;;;;;;1.58;70.59;100723.34;5051474;28;20040;-70
2021/03/20 03:23:37;;;;;;;8.30;5.13;;;;;;;1.59;70.65;100722.47;5051588;28;20086;-70
2021/03/20 03:26:16;;;;;;;12.48;8.18;;;;;;;1.58;70.61;100726.81;5033021;28;20032;-72
2021/03/20 03:29:10;;;;;;;8.25;6.97;;;;;;;1.62;70.62;100727.69;5051030;28;20040;-70
2021/03/20 03:31:43;;;;;;;11.02;7.25;;;;;;;1.59;70.61;100723.34;5044773;28;20041;-71
2021/03/20 03:34:33;;;;;;;18.92;9.45;;;;;;;1.58;70.57;100723.34;5051224;28;20492;-71
2021/03/20 03:37:12;;;;;;;12.05;7.43;;;;;;;1.48;70.58;100719.88;5050133;28;20036;-71
2021/03/20 03:39:51;;;;;;;11.88;6.05;;;;;;;1.39;71.18;100720.69;5049129;28;20048;-71
2021/03/20 03:42:19;;;;;;;9.85;6.32;;;;;;;1.34;70.89;100724.16;5050554;28;20483;-71
2021/03/20 03:44:47;;;;;;;8.25;5.90;;;;;;;1.34;70.93;100721.53;5050910;28;20035;-72
2021/03/20 03:47:15;;;;;;;14.05;7.88;;;;;;;1.40;70.59;100729.34;5051094;28;20035;-72
2021/03/20 03:49:41;;;;;;;11.75;8.40;;;;;;;1.44;71.16;100725.91;5050494;28;20072;-71
2021/03/20 03:52:06;;;;;;;12.88;7.47;;;;;;;1.46;70.62;100730.25;5049131;28;20405;-71
2021/03/20 03:54:33;;;;;;;13.68;7.28;;;;;;;1.50;70.22;100732.00;5040183;28;20759;-72
2021/03/20 03:57:12;;;;;;;17.80;9.88;;;;;;;1.49;70.50;100739.78;5030773;28;20489;-70
2021/03/20 04:00:06;;;;;;;12.15;8.20;;;;;;;1.45;70.83;100743.22;5030191;28;20040;-70
2021/03/20 04:02:44;;;;;;;15.38;8.65;;;;;;;1.33;70.84;100741.47;5030326;28;20413;-71
2021/03/20 04:05:13;;;;;;;10.65;7.30;;;;;;;1.24;71.23;100747.47;5025210;28;20059;-71
2021/03/20 04:07:47;;;;;;;12.23;7.70;;;;;;;1.16;71.63;100740.53;5039280;28;20033;-72
2021/03/20 04:10:27;;;;;;;14.52;8.80;;;;;;;1.16;70.69;100743.13;5030900;28;20034;-71
2021/03/20 04:13:03;;;;;;;12.60;8.55;;;;;;;1.13;71.89;100743.09;5030251;28;20034;-70
2021/03/20 04:15:47;;;;;;;;;;;;;;;1.17;71.95;100742.25;5030994;28;20050;-71
2021/03/20 04:18:28;;;;;;;12.00;7.78;;;;;;;1.18;71.01;100747.47;5029048;28;19921;-70
2021/03/20 04:21:21;;;;;;;11.93;9.23;;;;;;;1.17;71.93;100755.25;5030324;28;20034;-70
2021/03/20 04:23:59;;;;;;;13.30;9.18;;;;;;;1.17;71.38;100760.44;5030467;28;20053;-71
2021/03/20 04:26:36;;;;;;;13.25;9.20;;;;;;;1.03;71.72;100768.13;5030124;28;20536;-70
2021/03/20 04:29:25;;;;;;;13.68;8.95;;;;;;;0.98;71.27;100772.44;5030095;28;20064;-69
2021/03/20 04:32:17;;;;;;;13.07;9.60;;;;;;;0.98;71.33;100780.22;5030274;28;20033;-70
2021/03/20 04:34:52;;;;;;;14.23;9.02;;;;;;;0.95;71.78;100786.28;5030116;28;20045;-71
2021/03/20 04:37:25;;;;;;;11.77;8.45;;;;;;;0.85;72.16;100785.34;5030298;28;20433;-72
2021/03/20 04:39:53;;;;;;;14.48;9.95;;;;;;;0.69;72.35;100782.63;5031928;28;20029;-72
2021/03/20 04:42:29;;;;;;;12.55;9.88;;;;;;;0.63;72.47;100784.31;5030508;28;20116;-71
2021/03/20 04:44:55;;;;;;;14.00;9.95;;;;;;;0.56;72.75;100779.94;5038678;28;20038;-71
2021/03/20 04:47:24;;;;;;;15.25;8.52;;;;;;;0.52;73.15;100786.00;5033554;28;20116;-71
2021/03/20 04:50:15;;;;;;;16.92;10.30;;;;;;;0.49;72.88;100774.69;5034959;28;20095;-74
2021/03/20 04:52:44;;;;;;;14.65;10.70;;;;;;;0.44;72.88;100772.06;5033493;28;20096;-70
2021/03/20 04:55:12;;;;;;;15.10;10.50;;;;;;;0.37;73.76;100776.38;5036627;28;20029;-71
2021/03/20 04:57:47;;;;;;;17.15;11.23;;;;;;;0.33;73.10;100772.00;5030886;28;20492;-71
2021/03/20 05:00:21;;;;;;;16.42;11.48;;;;;;;0.26;73.34;100782.31;5031688;28;20088;-70
2021/03/20 05:03:04;;;;;;;19.45;11.40;;;;;;;0.12;73.92;100769.22;5030281;28;20026;-71
2021/03/20 05:05:38;;;;;;;19.10;12.57;;;;;;;0.05;74.36;100770.91;5029500;28;20548;-71
2021/03/20 05:08:10;;;;;;;18.52;12.63;;;;;;;0.02;73.97;100775.16;5029953;28;20116;-72
2021/03/20 05:10:38;;;;;;;16.15;10.68;;;;;;;0.01;75.22;100763.94;5028865;28;20048;-71
2021/03/20 05:13:10;;;;;;;25.02;15.82;;;;;;;0.03;74.36;100763.97;5039588;28;20039;-71
2021/03/20 05:15:35;;;;;;;17.63;12.93;;;;;;;0.01;74.89;100768.25;5010428;28;20400;-70
2021/03/20 05:18:01;;;;;;;23.98;13.48;;;;;;;0.00;74.73;100769.97;5010332;28;20038;-71
2021/03/20 05:20:26;;;;;;;21.30;13.77;;;;;;;-0.05;74.93;100769.03;5011715;28;20037;-71
2021/03/20 05:22:52;;;;;;;27.13;14.63;;;;;;;-0.11;74.72;100776.78;5014529;28;20030;-71
2021/03/20 05:25:22;;;;;;;15.57;10.98;;;;;;;-0.09;74.69;100772.47;5014120;28;20033;-70
2021/03/20 05:27:48;;;;;;;23.80;13.02;;;;;;;-0.09;74.87;100773.34;5013424;28;20559;-71
2021/03/20 05:30:14;;;;;;;23.45;14.15;;;;;;;-0.10;74.30;100774.19;5010930;28;20045;-71
2021/03/20 05:32:40;;;;;;;40.42;14.23;;;;;;;-0.17;74.73;100774.09;5011009;28;20485;-72
2021/03/20 05:35:09;;;;;;;18.42;11.68;;;;;;;-0.23;74.96;100772.31;5024964;28;20041;-73
2021/03/20 05:37:38;;;;;;;22.42;13.15;;;;;;;-0.27;75.59;100774.03;5030231;28;20427;-73
2021/03/20 05:40:07;;;;;;;21.63;11.73;;;;;;;-0.33;75.09;100770.50;5029388;28;20021;-71
2021/03/20 05:42:54;;;;;;;17.63;12.95;;;;;;;-0.36;75.71;100776.50;5029185;28;20072;-70
2021/03/20 05:45:32;;;;;;;21.08;11.52;;;;;;;-0.36;75.69;100780.81;5028869;28;20042;-72
2021/03/20 05:48:23;;;;;;;17.85;13.93;;;;;;;-0.35;74.97;100780.81;5028519;28;20044;-71
2021/03/20 05:50:54;;;;;;;18.95;11.52;;;;;;;-0.37;74.96;100774.78;5029103;28;20037;-71
2021/03/20 05:53:38;;;;;;;13.98;9.68;;;;;;;-0.33;75.33;100775.66;5029172;28;20421;-71
2021/03/20 05:56:21;;;;;;;18.33;11.32;;;;;;;-0.33;75.34;100776.53;5029053;28;20449;-70
2021/03/20 05:59:28;;;;;;;16.15;11.38;;;;;;;-0.34;75.31;100780.00;5032815;28;20035;-71
2021/03/20 06:02:15;;;;;;;16.75;11.20;;;;;;;-0.32;74.54;100772.22;5044055;28;20041;-71
2021/03/20 06:04:48;;;;;;;27.30;11.65;;;;;;;-0.30;74.92;100773.09;5032024;28;20456;-70
2021/03/20 06:07:37;;;;;;;22.02;13.30;;;;;;;-0.34;75.29;100774.81;5024844;28;20037;-71
2021/03/20 06:10:10;;;;;;;26.23;14.82;;;;;;;-0.31;75.52;100776.56;5032021;28;20033;-72
2021/03/20 06:12:55;;;;;;;23.13;14.30;;;;;;;-0.36;75.52;100781.69;5034044;28;20037;-71
2021/03/20 06:15:58;;;;;;;17.42;12.45;;;;;;;-0.38;75.22;100798.94;5033418;28;20037;-72
2021/03/20 06:18:40;;;;;;;15.60;9.95;;;;;;;-0.34;75.03;100803.31;5032067;28;20196;-71
2021/03/20 06:21:11;;;;;;;20.13;14.38;;;;;;;-0.23;75.10;100804.28;5039857;28;20530;-71
2021/03/20 06:23:52;;;;;;;19.05;11.80;;;;;;;-0.11;74.84;100808.72;5023095;28;20392;-71
2021/03/20 06:26:30;;;;;;;17.92;12.50;;;;;;;0.01;74.23;100809.72;5014895;28;20034;-72
2021/03/20 06:29:15;;;;;;;19.80;11.30;;;;;;;0.20;73.85;100822.03;5023930;28;20045;-67
2021/03/20 06:31:53;;;;;;;15.85;11.32;;;;;;;0.45;73.26;100823.09;5030742;28;20112;-68
2021/03/20 06:34:21;;;;;;;14.50;10.75;;;;;;;0.76;71.67;100833.72;5043670;28;20041;-67
2021/03/20 06:36:52;;;;;;;13.40;9.85;;;;;;;0.96;70.68;100826.06;5032417;28;20087;-67
2021/03/20 06:39:42;;;;;;;14.20;9.75;;;;;;;0.98;69.30;100820.03;5032726;28;20388;-68
2021/03/20 06:42:19;;;;;;;13.68;9.40;;;;;;;1.07;68.68;100830.50;5031804;28;20033;-67
2021/03/20 06:44:47;;;;;;;12.02;8.98;;;;;;;1.21;68.84;100828.00;5030479;28;20448;-67
2021/03/20 06:47:18;;;;;;;17.08;11.40;;;;;;;1.32;68.52;100827.19;5032039;28;20025;-67
2021/03/20 06:50:20;;;;;;;31.80;11.50;;;;;;;1.34;67.62;100828.06;5031946;28;20397;-66
2021/03/20 06:52:53;;;;;;;15.68;10.07;;;;;;;1.32;67.35;100843.63;4989567;28;20056;-67
2021/03/20 06:55:21;;;;;;;11.25;8.48;;;;;;;1.40;67.70;100833.25;5031703;28;20396;-68
2021/03/20 06:57:48;;;;;;;11.15;8.27;;;;;;;1.50;67.17;100840.25;5031630;28;20033;-67
2021/03/20 07:00:34;;;;;;;11.52;8.90;;;;;;;1.65;65.86;100847.22;5039957;28;20402;-68
2021/03/20 07:03:18;;;;;;;11.68;8.68;;;;;;;1.77;65.00;100855.09;5011619;28;20034;-68
2021/03/20 07:06:06;;;;;;;12.75;8.35;;;;;;;1.87;64.19;100851.69;5012038;28;20041;-67
2021/03/20 07:08:52;;;;;;;13.52;7.45;;;;;;;1.86;64.33;100860.31;5011490;28;20042;-67
2021/03/20 07:11:30;;;;;;;9.77;7.32;;;;;;;2.07;62.48;100861.28;5011158;28;20493;-66
2021/03/20 07:14:05;;;;;;;8.40;5.68;;;;;;;2.23;61.00;100860.44;5014367;28;20546;-68
2021/03/20 07:16:48;;;;;;;9.52;5.60;;;;;;;2.46;61.30;100863.09;5020320;28;20041;-68
2021/03/20 07:19:15;;;;;;;8.45;5.25;;;;;;;2.54;59.42;100871.78;5021704;28;20060;-70
2021/03/20 07:21:43;;;;;;;13.57;6.90;;;;;;;2.49;58.71;100870.91;5005904;28;20057;-69
2021/03/20 07:24:15;;;;;;;9.02;5.40;;;;;;;2.48;58.61;100881.28;5041552;28;20040;-70
2021/03/20 07:27:04;;;;;;;9.55;5.45;;;;;;;2.65;58.01;100887.38;5045569;28;20407;-70
2021/03/20 07:29:47;;;;;;;8.05;4.82;;;;;;;2.99;57.08;100885.66;5030908;28;20119;-71
2021/03/20 07:32:39;;;;;;;7.30;5.35;;;;;;;3.26;55.43;100885.66;5017334;28;20068;-71
2021/03/20 07:35:20;;;;;;;9.13;5.25;;;;;;;3.39;55.08;100885.59;5007272;28;20053;-70
2021/03/20 07:37:47;;;;;;;10.98;4.63;;;;;;;3.55;54.78;100890.81;5006094;28;20716;-70
2021/03/20 07:40:33;;;;;;;7.85;4.57;;;;;;;3.67;54.89;100898.59;5005849;28;20436;-70
2021/03/20 07:43:20;;;;;;;7.13;3.58;;;;;;;3.72;53.67;100888.16;5005217;28;20100;-70
2021/03/20 07:45:48;;;;;;;7.38;4.47;;;;;;;3.91;52.31;100896.75;5012782;28;20155;-72
2021/03/20 07:48:20;;;;;;;5.82;3.75;;;;;;;4.12;50.57;100893.19;5028449;28;20069;-70
2021/03/20 07:50:57;;;;;;;6.05;3.58;;;;;;;4.30;50.43;100888.72;5036974;28;20040;-73
2021/03/20 07:53:24;;;;;;;6.10;3.58;;;;;;;4.73;48.84;100892.81;5013803;28;20048;-73
2021/03/20 07:56:13;;;;;;;8.57;4.68;;;;;;;5.52;45.87;100900.81;5017542;28;20030;-71
2021/03/20 07:59:06;;;;;;;7.72;4.13;;;;;;;6.12;44.52;100903.63;5012697;28;20038;-73
2021/03/20 08:01:38;;;;;;;7.78;4.43;;;;;;;6.37;43.37;100901.53;5004798;28;20085;-72
2021/03/20 08:04:09;;;;;;;8.35;4.03;;;;;;;6.63;42.59;100895.91;5005038;28;20034;-71
2021/03/20 08:06:35;;;;;;;6.07;4.13;;;;;;;6.88;41.01;100892.91;5005122;28;20041;-72
2021/03/20 08:09:13;;;;;;;11.10;4.40;;;;;;;7.01;40.09;100888.31;5005091;28;20046;-71
2021/03/20 08:11:39;;;;;;;5.72;3.80;;;;;;;7.08;39.27;100890.81;5005402;28;20038;-72
2021/03/20 08:14:11;;;;;;;6.20;3.85;;;;;;;7.45;38.84;100890.16;5009635;28;20037;-71
2021/03/20 08:16:36;;;;;;;9.43;4.32;;;;;;;8.20;38.05;100886.94;5017710;28;20025;-73
2021/03/20 08:19:02;;;;;;;6.82;4.63;;;;;;;8.70;36.49;100888.44;5013875;28;20038;-73
2021/03/20 08:21:54;;;;;;;9.90;4.35;;;;;;;9.14;34.94;100881.22;5016261;28;20515;-72
2021/03/20 08:24:29;;;;;;;7.80;4.45;;;;;;;9.52;33.98;100892.50;4999777;28;20048;-72
2021/03/20 08:27:11;;;;;;;5.43;3.78;;;;;;;10.26;32.06;100885.13;5013997;28;20527;-72
2021/03/20 08:30:13;;;;;;;5.43;3.95;;;;;;;10.76;31.75;100877.44;5013608;28;20037;-72
2021/03/20 08:33:12;;;;;;;7.72;3.90;;;;;;;11.07;31.06;100879.91;5014432;28;20247;-70
2021/03/20 08:36:02;;;;;;;9.52;4.22;;;;;;;11.43;30.21;100873.44;5008291;28;20043;-72
2021/03/20 08:38:41;;;;;;;7.93;4.18;;;;;;;11.97;28.67;100878.50;5017989;28;20057;-73
2021/03/20 08:41:35;;;;;;;8.00;4.05;;;;;;;12.30;28.42;100872.84;5012753;28;20038;-73
2021/03/20 08:44:13;;;;;;;9.57;4.00;;;;;;;12.09;27.94;100869.28;4989224;28;20087;-71
2021/03/20 08:47:03;;;;;;;6.75;4.18;;;;;;;12.23;27.13;100872.25;5015236;28;20087;-73
2021/03/20 08:49:55;;;;;;;7.70;5.65;;;;;;;12.41;27.67;100875.94;5013925;28;20188;-72
2021/03/20 08:52:31;;;;;;;8.27;3.70;;;;;;;12.28;27.74;100882.66;5029552;28;20397;-73
2021/03/20 08:55:15;;;;;;;;;;;;;;;12.27;26.13;100885.34;5016852;28;20026;-72
2021/03/20 08:57:52;;;;;;;6.22;3.88;;;;;;;12.34;26.34;100887.69;5014361;28;19925;-71
2021/03/20 09:00:28;;;;;;;6.45;4.10;;;;;;;12.06;26.67;100897.56;5014750;28;20095;-72
2021/03/20 09:02:59;;;;;;;6.68;4.60;;;;;;;11.85;25.92;100899.22;5014410;28;20045;-73
2021/03/20 09:05:33;;;;;;;8.65;3.67;;;;;;;12.22;25.56;100896.94;5018944;28;20048;-71
2021/03/20 09:08:08;;;;;;;5.30;3.75;;;;;;;12.66;25.25;100894.34;5017308;28;20121;-72
2021/03/20 09:10:38;;;;;;;6.10;4.20;;;;;;;12.48;25.21;100903.03;5017405;28;20042;-73
2021/03/20 09:13:15;;;;;;;6.13;4.28;;;;;;;12.14;25.68;100895.53;5026562;28;20489;-73
2021/03/20 09:15:44;;;;;;;5.65;4.50;;;;;;;12.58;25.41;100899.09;5014128;28;20040;-72
2021/03/20 09:18:13;;;;;;;9.18;4.55;;;;;;;12.44;24.79;100909.34;5013554;28;20034;-72
2021/03/20 09:20:49;;;;;;;8.35;4.65;;;;;;;12.78;24.41;100900.09;5011849;28;20064;-71
2021/03/20 09:23:40;;;;;;;7.80;5.20;;;;;;;12.87;24.09;100900.56;5015136;28;20033;-72
2021/03/20 09:26:09;;;;;;;8.23;3.90;;;;;;;13.03;23.41;100895.50;5012185;28;20100;-71
2021/03/20 09:28:52;;;;;;;10.77;5.53;;;;;;;13.22;24.63;100889.44;5011263;28;20450;-72
2021/03/20 09:31:31;;;;;;;5.82;4.30;;;;;;;13.57;23.95;100897.69;5016666;28;20627;-72
2021/03/20 09:33:59;;;;;;;5.03;3.60;;;;;;;13.59;23.28;100894.03;5013747;28;20049;-71
2021/03/20 09:36:33;;;;;;;3.70;2.80;;;;;;;13.69;23.30;100894.50;5017891;28;20107;-71
2021/03/20 09:38:59;;;;;;;6.00;3.53;;;;;;;13.66;22.98;100894.59;5015371;28;20034;-70
2021/03/20 09:41:27;;;;;;;4.18;3.20;;;;;;;13.84;23.32;100901.75;5020539;28;20112;-72
2021/03/20 09:43:58;;;;;;;4.53;3.00;;;;;;;13.62;22.59;100885.09;5020925;28;20037;-73
2021/03/20 09:46:35;;;;;;;3.95;2.95;;;;;;;13.70;22.45;100891.75;5018331;28;20139;-72
2021/03/20 09:49:20;;;;;;;6.70;3.60;;;;;;;13.66;22.95;100891.94;5016667;28;20033;-71
2021/03/20 09:51:46;;;;;;;5.00;3.03;;;;;;;13.33;23.13;100889.84;5019058;28;20037;-71
2021/03/20 09:54:23;;;;;;;5.03;3.35;;;;;;;13.33;22.34;100897.81;5017481;28;20041;-71
2021/03/20 09:59:41;;;;;;;7.90;3.35;;;;;;;13.29;23.08;100896.19;5017108;28;20045;-71
2021/03/20 10:02:10;;;;;;;10.48;3.60;;;;;;;12.92;21.48;100905.69;5019733;28;20591;-71
2021/03/20 10:04:37;;;;;;;48.42;7.60;;;;;;;12.95;22.88;100909.97;5017790;28;20038;-72
2021/03/20 10:07:25;;;;;;;6.10;2.97;;;;;;;13.88;22.42;100903.34;5013295;28;20034;-71
2021/03/20 10:10:02;;;;;;;4.45;3.13;;;;;;;14.35;22.55;100904.75;5020653;28;20061;-71
2021/03/20 10:13:11;;;;;;;3.53;2.38;;;;;;;14.86;22.37;100897.00;5026314;28;20033;-72
2021/03/20 10:15:53;;;;;;;4.03;3.20;;;;;;;14.39;22.10;100909.81;5016679;28;20463;-71
2021/03/20 10:18:26;;;;;;;5.88;2.60;;;;;;;13.90;22.00;100908.56;5027000;28;20033;-72
2021/03/20 10:20:51;;;;;;;3.70;2.65;;;;;;;14.11;22.32;100902.28;5027129;28;20051;-72
2021/03/20 10:23:31;;;;;;;5.28;2.90;;;;;;;14.70;20.37;100899.56;5025802;28;20042;-72
2021/03/20 10:26:01;;;;;;;5.70;2.90;;;;;;;13.93;20.62;100898.69;5027270;28;20438;-72
2021/03/20 10:28:30;;;;;;;3.35;2.78;;;;;;;14.00;19.83;100903.69;5026969;28;20093;-72
2021/03/20 10:31:05;;;;;;;3.42;2.42;;;;;;;13.83;20.67;100902.69;5020616;28;20026;-72
2021/03/20 10:33:33;;;;;;;3.83;2.72;;;;;;;13.71;21.55;100896.13;5007027;28;20149;-72
2021/03/20 10:36:25;;;;;;;3.90;2.72;;;;;;;13.98;20.36;100890.53;5007306;28;20487;-69
2021/03/20 10:38:50;;;;;;;6.05;3.05;;;;;;;13.79;20.75;100874.59;5008677;28;20045;-69
2021/03/20 10:41:25;;;;;;;4.85;2.60;;;;;;;13.30;19.61;100879.41;5008819;28;20036;-69
2021/03/20 10:43:57;;;;;;;4.28;2.35;;;;;;;12.36;20.97;100880.56;5007647;28;20049;-71
2021/03/20 10:46:29;;;;;;;4.00;2.85;;;;;;;12.32;21.64;100872.81;5005402;28;20505;-71
2021/03/20 10:48:57;;;;;;;7.57;2.45;;;;;;;11.86;22.00;100870.06;5007679;28;20068;-70
2021/03/20 10:51:27;;;;;;;5.15;2.17;;;;;;;11.41;22.43;100868.19;5024061;28;20378;-71
2021/03/20 10:53:57;;;;;;;12.10;3.53;;;;;;;10.80;23.92;100857.09;5005542;28;20054;-71
2021/03/20 10:56:39;;;;;;;7.05;3.88;;;;;;;10.80;24.58;100860.59;5029928;28;20037;-70
2021/03/20 10:59:27;;;;;;;4.03;2.28;;;;;;;10.30;25.42;100855.16;5046047;28;20033;-70
2021/03/20 11:01:53;;;;;;;3.38;2.42;;;;;;;10.07;25.58;100848.78;5046929;28;20074;-71
2021/03/20 11:04:29;;;;;;;4.07;2.40;;;;;;;9.81;25.64;100852.19;5046340;28;20095;-70
2021/03/20 11:06:56;;;;;;;4.80;2.80;;;;;;;9.38;26.15;100844.66;5036545;28;20428;-68
2021/03/20 11:09:26;;;;;;;7.15;3.20;;;;;;;9.40;26.70;100843.69;5016498;28;20195;-70
2021/03/20 11:12:00;;;;;;;4.45;2.92;;;;;;;9.50;26.06;100841.69;5028577;28;20125;-70
2021/03/20 11:14:25;;;;;;;5.65;3.30;;;;;;;9.16;25.50;100852.25;5037464;28;20496;-72
2021/03/20 11:16:57;;;;;;;4.50;2.85;;;;;;;8.90;25.81;100848.50;5020575;28;20157;-69
2021/03/20 11:19:33;;;;;;;4.00;2.72;;;;;;;8.93;25.69;100850.19;5024388;28;20103;-73
2021/03/20 11:22:14;;;;;;;6.07;3.08;;;;;;;8.75;26.43;100841.88;5033488;28;20033;-70
2021/03/20 11:24:39;;;;;;;6.70;3.45;;;;;;;8.89;26.53;100838.03;5018450;28;20072;-70
2021/03/20 11:27:15;;;;;;;4.88;3.35;;;;;;;8.80;26.80;100837.34;5020722;28;20057;-70
2021/03/20 11:29:41;;;;;;;7.25;2.72;;;;;;;8.86;26.51;100836.34;5025771;28;20041;-69
2021/03/20 11:32:19;;;;;;;5.97;2.92;;;;;;;8.73;26.00;100834.91;5009379;28;20507;-69
2021/03/20 11:34:56;;;;;;;9.05;3.42;;;;;;;8.86;25.42;100832.84;5026300;28;20049;-70
2021/03/20 11:37:25;;;;;;;7.25;3.53;;;;;;;8.84;25.56;100832.91;5023107;28;20072;-71
2021/03/20 11:39:59;;;;;;;4.85;3.05;;;;;;;8.84;25.73;100832.03;5025274;28;20144;-70
2021/03/20 11:42:36;;;;;;;4.80;3.20;;;;;;;8.59;25.53;100838.75;5032656;28;20048;-68
2021/03/20 11:45:09;;;;;;;4.68;3.15;;;;;;;8.64;27.77;100840.41;5031814;28;20040;-70
2021/03/20 11:47:37;;;;;;;5.68;3.80;;;;;;;8.56;26.45;100841.44;5005030;28;20033;-69
2021/03/20 11:50:14;;;;;;;7.80;2.97;;;;;;;8.49;27.70;100834.63;5013768;28;20520;-69
2021/03/20 11:52:52;;;;;;;7.47;3.05;;;;;;;8.40;25.52;100832.22;5023112;28;20041;-68
2021/03/20 11:55:36;;;;;;;4.00;2.55;;;;;;;8.60;25.55;100835.22;5019818;28;20045;-67
2021/03/20 11:58:06;;;;;;;8.95;3.65;;;;;;;8.47;26.04;100840.81;5025322;28;20060;-67
2021/03/20 12:00:45;;;;;;;18.80;3.22;;;;;;;8.19;25.87;100849.28;5024657;28;20160;-67
2021/03/20 12:03:36;;;;;;;21.05;3.45;;;;;;;8.04;27.07;100841.75;5024848;28;20154;-68